Time;durP1;ratioP1;P1;durP2;ratioP2;P2;SDS_P1;SDS_P2;PMS_P1;PMS_P2;Temp;Humidity;BMP_temperature;BMP_pressure;BME280_temperature;BME280_humidity;BME280_pressure;Samples;Min_cycle;Max_cycle;Signal;HPM_P1;HPM_P2
2021/11/21 00:01:49;;;;;;;0.60;0.60;;;2.10;99.90;;;;;;5011621;28;20281;-75
2021/11/21 00:04:14;;;;;;;0.60;0.60;;;2.10;99.90;;;;;;5010474;28;20210;-75
2021/11/21 00:06:41;;;;;;;0.70;0.70;;;2.10;99.90;;;;;;5009250;28;20688;-75
2021/11/21 00:09:07;;;;;;;0.60;0.60;;;2.20;99.90;;;;;;5010262;28;20665;-75
2021/11/21 00:11:33;;;;;;;0.70;0.70;;;2.20;99.90;;;;;;5010145;28;20194;-75
2021/11/21 00:13:59;;;;;;;0.80;0.80;;;2.20;99.90;;;;;;5010777;28;20210;-76
2021/11/21 00:16:24;;;;;;;0.70;0.70;;;2.10;99.90;;;;;;5011395;28;20230;-76
2021/11/21 00:18:50;;;;;;;0.70;0.70;;;2.10;99.90;;;;;;5007957;28;20209;-75
2021/11/21 00:21:16;;;;;;;0.73;0.73;;;2.10;99.90;;;;;;5009229;28;20306;-75
2021/11/21 00:23:42;;;;;;;0.65;0.65;;;2.00;99.90;;;;;;5009934;28;20203;-75
2021/11/21 00:26:08;;;;;;;0.50;0.50;;;2.00;99.90;;;;;;5010937;28;20203;-75
2021/11/21 00:28:33;;;;;;;0.60;0.60;;;2.00;99.90;;;;;;5010312;28;20218;-75
2021/11/21 00:31:00;;;;;;;0.63;0.63;;;2.00;99.90;;;;;;5010345;28;20219;-75
2021/11/21 00:33:25;;;;;;;0.60;0.60;;;1.90;99.90;;;;;;5008773;28;20199;-74
2021/11/21 00:35:51;;;;;;;0.70;0.70;;;1.90;99.90;;;;;;5009812;28;20252;-75
2021/11/21 00:38:17;;;;;;;0.65;0.65;;;1.80;99.90;;;;;;5010196;28;20230;-75
2021/11/21 00:40:43;;;;;;;0.70;0.70;;;1.70;99.90;;;;;;5011214;28;20264;-75
2021/11/21 00:43:09;;;;;;;0.70;0.70;;;1.80;99.90;;;;;;5008762;28;20210;-75
2021/11/21 00:45:35;;;;;;;0.70;0.70;;;1.70;99.90;;;;;;5011188;28;20284;-75
2021/11/21 00:48:01;;;;;;;0.50;0.50;;;1.80;99.90;;;;;;5009981;28;20249;-75
2021/11/21 00:50:29;;;;;;;0.80;0.80;;;1.90;99.90;;;;;;5008442;28;20202;-75
2021/11/21 00:53:00;;;;;;;0.60;0.60;;;1.90;99.90;;;;;;5011130;28;20195;-75
2021/11/21 00:55:38;;;;;;;0.70;0.70;;;2.00;99.90;;;;;;5025071;28;20198;-75
2021/11/21 00:58:07;;;;;;;0.77;0.77;;;2.00;99.90;;;;;;5009112;28;20226;-75
2021/11/21 01:00:33;;;;;;;0.60;0.60;;;2.00;99.90;;;;;;5010020;28;20290;-76
2021/11/21 01:02:59;;;;;;;2.47;1.48;;;1.90;99.90;;;;;;5011037;28;20202;-75
2021/11/21 01:05:25;;;;;;;0.60;0.60;;;1.90;99.90;;;;;;5008286;28;20217;-76
2021/11/21 01:07:51;;;;;;;0.70;0.70;;;2.00;99.90;;;;;;5010198;28;20569;-75
2021/11/21 01:10:20;;;;;;;0.60;0.60;;;1.90;99.90;;;;;;5011135;28;20206;-75
2021/11/21 01:12:46;;;;;;;0.70;0.70;;;1.90;99.90;;;;;;5012001;28;20505;-75
2021/11/21 01:15:18;;;;;;;0.77;0.77;;;1.90;99.90;;;;;;5013962;28;20199;-75
2021/11/21 01:17:45;;;;;;;0.60;0.60;;;1.90;99.90;;;;;;4997737;28;20246;-75
2021/11/21 01:20:11;;;;;;;0.60;0.60;;;1.90;99.90;;;;;;5014612;28;20195;-75
2021/11/21 01:22:37;;;;;;;0.70;0.70;;;1.80;99.90;;;;;;5012693;28;20581;-75
2021/11/21 01:25:06;;;;;;;0.60;0.60;;;1.80;99.90;;;;;;5014980;28;20207;-75
2021/11/21 01:27:31;;;;;;;0.70;0.70;;;1.80;99.90;;;;;;5013395;28;20502;-75
2021/11/21 01:29:57;;;;;;;0.60;0.60;;;1.80;99.90;;;;;;5013131;28;20217;-75
2021/11/21 01:32:23;;;;;;;0.70;0.70;;;1.70;99.90;;;;;;4996947;28;20200;-75
2021/11/21 01:34:48;;;;;;;0.60;0.60;;;1.60;99.90;;;;;;5010497;28;20203;-75
2021/11/21 01:37:14;;;;;;;0.60;0.60;;;1.60;99.90;;;;;;5013374;28;20290;-75
2021/11/21 01:39:40;;;;;;;0.70;0.70;;;1.70;99.90;;;;;;5013103;28;20241;-75
2021/11/21 01:42:07;;;;;;;0.70;0.70;;;1.70;99.90;;;;;;5012965;28;20310;-76
2021/11/21 01:44:33;;;;;;;0.60;0.60;;;1.60;99.90;;;;;;5013041;28;20195;-76
2021/11/21 01:46:58;;;;;;;0.70;0.70;;;1.60;99.90;;;;;;5011507;28;20293;-75
2021/11/21 01:49:24;;;;;;;0.70;0.70;;;1.50;99.90;;;;;;5012096;28;20218;-75
2021/11/21 01:51:50;;;;;;;0.50;0.50;;;1.60;99.90;;;;;;5012943;28;20207;-75
2021/11/21 01:54:17;;;;;;;0.77;0.77;;;1.60;99.90;;;;;;5011729;28;20202;-75
2021/11/21 01:56:45;;;;;;;0.63;0.63;;;1.60;99.90;;;;;;5013750;28;20541;-75
2021/11/21 01:59:11;;;;;;;0.70;0.70;;;1.70;99.90;;;;;;5011265;28;20213;-75
2021/11/21 02:01:37;;;;;;;0.80;0.80;;;1.70;99.90;;;;;;5012557;28;20207;-75
2021/11/21 02:04:03;;;;;;;0.70;0.70;;;1.70;99.90;;;;;;5013587;28;20585;-75
2021/11/21 02:06:29;;;;;;;0.70;0.70;;;1.70;99.90;;;;;;5009842;28;20206;-75
2021/11/21 02:08:57;;;;;;;1.58;1.48;;;1.60;99.90;;;;;;5012433;28;20204;-75
2021/11/21 02:11:24;;;;;;;0.63;0.63;;;1.60;99.90;;;;;;5012319;28;24956;-75
2021/11/21 02:13:51;;;;;;;0.70;0.70;;;1.60;99.90;;;;;;5013668;28;20269;-75
2021/11/21 02:16:18;;;;;;;0.70;0.70;;;1.60;99.90;;;;;;5012493;28;20349;-75
2021/11/21 02:18:45;;;;;;;5.07;1.98;;;1.60;99.90;;;;;;5012849;28;20206;-75
2021/11/21 02:21:12;;;;;;;0.60;0.60;;;1.60;99.90;;;;;;5011402;28;20569;-75
2021/11/21 02:23:38;;;;;;;0.60;0.60;;;1.60;99.90;;;;;;5010564;28;20206;-74
2021/11/21 02:26:04;;;;;;;0.60;0.60;;;1.50;99.90;;;;;;5012331;28;20290;-75
2021/11/21 02:28:30;;;;;;;0.73;0.73;;;1.50;99.90;;;;;;5011666;28;20203;-75
2021/11/21 02:30:56;;;;;;;0.75;0.75;;;1.50;99.90;;;;;;5027391;28;20218;-75
2021/11/21 02:33:22;;;;;;;0.73;0.73;;;1.50;99.90;;;;;;5010486;28;20230;-76
2021/11/21 02:35:58;;;;;;;0.70;0.70;;;1.50;99.90;;;;;;5013192;28;20257;-75
2021/11/21 02:38:25;;;;;;;0.70;0.70;;;1.50;99.90;;;;;;5010782;28;20210;-75
2021/11/21 02:40:53;;;;;;;0.70;0.70;;;1.50;99.90;;;;;;5010592;28;20321;-74
2021/11/21 02:43:20;;;;;;;0.60;0.60;;;1.50;99.90;;;;;;5010339;28;20211;-75
2021/11/21 02:45:47;;;;;;;0.60;0.60;;;1.50;99.90;;;;;;5012996;28;20226;-75
2021/11/21 02:48:18;;;;;;;0.70;0.70;;;1.40;99.90;;;;;;5011660;28;20209;-75
2021/11/21 02:50:44;;;;;;;0.70;0.70;;;1.50;99.90;;;;;;5011790;28;20203;-76
2021/11/21 02:53:12;;;;;;;0.70;0.70;;;1.50;99.90;;;;;;5010381;28;20245;-74
2021/11/21 02:55:38;;;;;;;0.70;0.70;;;1.50;99.90;;;;;;5011353;28;20732;-75
2021/11/21 02:58:04;;;;;;;0.63;0.63;;;1.50;99.90;;;;;;5011802;28;20297;-75
2021/11/21 03:00:33;;;;;;;0.70;0.70;;;1.40;99.90;;;;;;5009482;28;20227;-75
2021/11/21 03:02:58;;;;;;;0.70;0.70;;;1.40;99.90;;;;;;5009827;28;20206;-75
2021/11/21 03:05:24;;;;;;;0.70;0.70;;;1.40;99.90;;;;;;5012113;28;20202;-75
2021/11/21 03:07:50;;;;;;;0.80;0.80;;;1.30;99.90;;;;;;5011540;28;20302;-75
2021/11/21 03:10:19;;;;;;;0.73;0.73;;;1.30;99.90;;;;;;5010105;28;20285;-75
2021/11/21 03:12:50;;;;;;;0.70;0.70;;;1.30;99.90;;;;;;5011185;28;20658;-75
2021/11/21 03:15:16;;;;;;;0.60;0.60;;;1.20;99.90;;;;;;5012684;28;20658;-75
2021/11/21 03:17:43;;;;;;;0.70;0.70;;;1.20;99.90;;;;;;5011804;28;20206;-75
2021/11/21 03:20:14;;;;;;;0.60;0.60;;;1.20;99.90;;;;;;5011820;28;20578;-75
2021/11/21 03:22:40;;;;;;;0.70;0.70;;;1.20;99.90;;;;;;5011401;28;20211;-75
2021/11/21 03:25:07;;;;;;;0.70;0.70;;;1.20;99.90;;;;;;5009563;28;20206;-75
2021/11/21 03:27:32;;;;;;;0.60;0.60;;;1.20;99.90;;;;;;5011102;28;20206;-75
2021/11/21 03:29:58;;;;;;;0.60;0.60;;;1.20;99.90;;;;;;5011033;28;20312;-75
2021/11/21 03:32:24;;;;;;;0.68;0.68;;;1.20;99.90;;;;;;5011830;28;20229;-75
2021/11/21 03:34:50;;;;;;;0.60;0.60;;;1.20;99.90;;;;;;5009841;28;20214;-76
2021/11/21 03:37:16;;;;;;;0.65;0.65;;;1.10;99.90;;;;;;5011088;28;20571;-75
2021/11/21 03:39:41;;;;;;;0.70;0.70;;;1.10;99.90;;;;;;5010717;28;20202;-75
2021/11/21 03:42:07;;;;;;;0.60;0.60;;;1.10;99.90;;;;;;5012193;28;20210;-76
2021/11/21 03:44:33;;;;;;;0.77;0.77;;;1.10;99.90;;;;;;5010686;28;20245;-75
2021/11/21 03:46:59;;;;;;;0.70;0.70;;;1.00;99.90;;;;;;5012477;28;20554;-75
2021/11/21 03:49:25;;;;;;;0.80;0.80;;;0.90;99.90;;;;;;5011981;28;20634;-75
2021/11/21 03:51:50;;;;;;;0.80;0.80;;;0.80;99.90;;;;;;5010749;28;20207;-75
2021/11/21 03:54:16;;;;;;;0.80;0.80;;;0.70;99.90;;;;;;5010839;28;20201;-75
2021/11/21 03:56:42;;;;;;;0.80;0.80;;;0.60;99.90;;;;;;5007984;28;20211;-75
2021/11/21 03:59:08;;;;;;;0.70;0.70;;;0.50;99.90;;;;;;5009343;28;20203;-75
2021/11/21 04:01:34;;;;;;;0.55;0.55;;;0.30;99.90;;;;;;5002168;28;20200;-75
2021/11/21 04:04:05;;;;;;;0.77;0.77;;;0.20;99.90;;;;;;5012090;28;20278;-75
2021/11/21 04:06:31;;;;;;;0.60;0.60;;;0.20;99.90;;;;;;5011480;28;20596;-75
2021/11/21 04:08:57;;;;;;;0.60;0.60;;;0.20;99.90;;;;;;5012171;28;20215;-75
2021/11/21 04:11:23;;;;;;;0.70;0.70;;;0.20;99.90;;;;;;5009261;28;20282;-75
2021/11/21 04:13:49;;;;;;;0.70;0.70;;;0.20;99.90;;;;;;5010647;28;20230;-75
2021/11/21 04:16:14;;;;;;;0.70;0.70;;;0.20;99.90;;;;;;5010140;28;20236;-75
2021/11/21 04:18:42;;;;;;;0.70;0.70;;;0.30;99.90;;;;;;5010177;28;20264;-75
2021/11/21 04:21:09;;;;;;;0.70;0.70;;;0.30;99.90;;;;;;5008635;28;20245;-75
2021/11/21 04:23:34;;;;;;;0.90;0.90;;;0.30;99.90;;;;;;5009062;28;20206;-75
2021/11/21 04:26:00;;;;;;;0.80;0.80;;;0.20;99.90;;;;;;5010193;28;20728;-75
2021/11/21 04:28:26;;;;;;;0.70;0.70;;;0.30;99.90;;;;;;5011368;28;20242;-75
2021/11/21 04:30:53;;;;;;;0.70;0.70;;;0.40;99.90;;;;;;5010463;28;20201;-75
2021/11/21 04:33:22;;;;;;;0.70;0.70;;;0.40;99.90;;;;;;5010085;28;20191;-73
2021/11/21 04:35:47;;;;;;;0.70;0.70;;;0.30;99.90;;;;;;5009198;28;20199;-75
2021/11/21 04:38:14;;;;;;;0.70;0.70;;;0.30;99.90;;;;;;5009110;28;20202;-75
2021/11/21 04:40:39;;;;;;;0.70;0.70;;;0.30;99.90;;;;;;5008463;28;20328;-75
2021/11/21 04:43:05;;;;;;;0.60;0.60;;;0.20;99.90;;;;;;5010512;28;20289;-75
2021/11/21 04:45:31;;;;;;;0.70;0.70;;;0.20;99.90;;;;;;5014266;28;20213;-75
2021/11/21 04:47:56;;;;;;;0.60;0.60;;;0.20;99.90;;;;;;5014288;28;20612;-74
2021/11/21 04:50:23;;;;;;;0.70;0.70;;;0.30;99.90;;;;;;5015433;28;20401;-75
2021/11/21 04:52:48;;;;;;;0.70;0.70;;;0.20;99.90;;;;;;5014106;28;20229;-75
2021/11/21 04:55:14;;;;;;;0.70;0.70;;;0.20;99.90;;;;;;5030616;28;20202;-75
2021/11/21 04:57:42;;;;;;;0.70;0.70;;;0.20;99.90;;;;;;5015323;28;20207;-76
2021/11/21 05:00:15;;;;;;;0.70;0.70;;;0.10;99.90;;;;;;5013226;28;20273;-75
2021/11/21 05:02:43;;;;;;;0.70;0.70;;;0.10;99.90;;;;;;5013716;28;20257;-75
2021/11/21 05:05:09;;;;;;;0.65;0.65;;;0.10;99.90;;;;;;5012838;28;20636;-75
2021/11/21 05:07:37;;;;;;;0.73;0.73;;;0.10;99.90;;;;;;5013947;28;20218;-76
2021/11/21 05:10:07;;;;;;;0.80;0.80;;;0.10;99.90;;;;;;5013798;28;20207;-75
2021/11/21 05:12:33;;;;;;;0.70;0.70;;;0.20;99.90;;;;;;5014654;28;20686;-75
2021/11/21 05:15:04;;;;;;;0.75;0.75;;;0.20;99.90;;;;;;5013699;28;20217;-75
2021/11/21 05:17:29;;;;;;;0.65;0.65;;;0.30;99.90;;;;;;5012538;28;20210;-75
2021/11/21 05:19:58;;;;;;;0.70;0.70;;;0.20;99.90;;;;;;5028961;28;20218;-76
2021/11/21 05:22:25;;;;;;;0.82;0.82;;;0.20;99.90;;;;;;5013266;28;20211;-76
2021/11/21 05:24:51;;;;;;;0.80;0.80;;;0.20;99.90;;;;;;5014614;28;20205;-75
2021/11/21 05:27:16;;;;;;;0.70;0.70;;;0.10;99.90;;;;;;5012392;28;20203;-75
2021/11/21 05:29:42;;;;;;;0.70;0.70;;;0.10;99.90;;;;;;5011964;28;20235;-76
2021/11/21 05:32:08;;;;;;;0.70;0.70;;;0.00;99.90;;;;;;5012317;28;20550;-75
2021/11/21 05:34:33;;;;;;;0.77;0.77;;;0.00;99.90;;;;;;5013095;28;20260;-76
2021/11/21 05:36:59;;;;;;;0.70;0.70;;;-0.10;99.90;;;;;;5014377;28;20290;-76
2021/11/21 05:39:25;;;;;;;0.80;0.80;;;-0.30;99.90;;;;;;5014185;28;20237;-75
2021/11/21 05:41:50;;;;;;;0.80;0.80;;;-0.40;99.90;;;;;;5011677;28;20600;-75
2021/11/21 05:44:16;;;;;;;2.15;1.42;;;-0.40;99.90;;;;;;5014269;28;20207;-75
2021/11/21 05:46:42;;;;;;;0.70;0.70;;;-0.40;99.90;;;;;;5011692;28;20236;-75
2021/11/21 05:49:09;;;;;;;0.77;0.77;;;-0.40;99.90;;;;;;5014423;28;20520;-75
2021/11/21 05:51:35;;;;;;;0.65;0.65;;;-0.30;99.90;;;;;;5014196;28;20292;-75
2021/11/21 05:54:01;;;;;;;0.70;0.70;;;-0.30;99.90;;;;;;5013460;28;20689;-74
2021/11/21 05:56:28;;;;;;;0.80;0.80;;;-0.30;99.90;;;;;;5012845;28;20569;-73
2021/11/21 05:58:53;;;;;;;0.90;0.90;;;-0.40;99.90;;;;;;5012677;28;20211;-75
2021/11/21 06:01:21;;;;;;;0.70;0.70;;;-0.40;99.90;;;;;;5012738;28;20304;-74
2021/11/21 06:03:47;;;;;;;0.80;0.80;;;-0.50;99.90;;;;;;5012841;28;20340;-75
2021/11/21 06:06:13;;;;;;;0.80;0.80;;;-0.50;99.90;;;;;;5011208;28;20573;-73
2021/11/21 06:08:39;;;;;;;0.80;0.80;;;-0.50;99.90;;;;;;5009971;28;20214;-75
2021/11/21 06:11:05;;;;;;;0.80;0.80;;;-0.40;99.90;;;;;;5013687;28;20649;-75
2021/11/21 06:13:30;;;;;;;0.80;0.80;;;-0.40;99.90;;;;;;5025937;28;20630;-74
2021/11/21 06:15:56;;;;;;;0.80;0.80;;;-0.30;99.90;;;;;;5011247;28;20198;-75
2021/11/21 06:18:22;;;;;;;0.70;0.70;;;-0.40;99.90;;;;;;5012163;28;20549;-76
2021/11/21 06:20:47;;;;;;;0.90;0.90;;;-0.40;99.90;;;;;;5013226;28;20203;-75
2021/11/21 06:23:13;;;;;;;0.65;0.65;;;-0.50;99.90;;;;;;5012583;28;20709;-75
2021/11/21 06:25:42;;;;;;;0.73;0.73;;;-0.50;99.90;;;;;;5013304;28;20221;-76
2021/11/21 06:28:08;;;;;;;0.65;0.65;;;-0.40;99.90;;;;;;5011060;28;20285;-76
2021/11/21 06:30:34;;;;;;;0.70;0.70;;;-0.40;99.90;;;;;;5010831;28;20203;-76
2021/11/21 06:33:00;;;;;;;0.70;0.70;;;-0.40;99.90;;;;;;5013033;28;20232;-76
2021/11/21 06:35:25;;;;;;;0.60;0.60;;;-0.40;99.90;;;;;;5012021;28;20245;-76
2021/11/21 06:37:51;;;;;;;0.70;0.70;;;-0.40;99.90;;;;;;5011001;28;20198;-76
2021/11/21 06:40:17;;;;;;;0.80;0.80;;;-0.40;99.90;;;;;;5013398;28;20206;-77
2021/11/21 06:42:43;;;;;;;0.80;0.80;;;-0.50;99.90;;;;;;5011136;28;20238;-75
2021/11/21 06:45:13;;;;;;;0.75;0.75;;;-0.60;99.90;;;;;;5013164;28;20215;-75
2021/11/21 06:47:39;;;;;;;0.70;0.70;;;-0.60;99.90;;;;;;5010284;28;20587;-75
2021/11/21 06:50:07;;;;;;;0.63;0.63;;;-0.60;99.90;;;;;;5012947;28;20214;-75
2021/11/21 06:52:34;;;;;;;0.80;0.80;;;-0.60;99.90;;;;;;5026568;28;20264;-75
2021/11/21 06:55:01;;;;;;;0.65;0.65;;;-0.60;99.90;;;;;;5012916;28;20202;-75
2021/11/21 06:57:27;;;;;;;0.70;0.70;;;-0.60;99.90;;;;;;5011385;28;20281;-75
2021/11/21 06:59:52;;;;;;;0.80;0.80;;;-0.50;99.90;;;;;;5010440;28;20611;-75
2021/11/21 07:02:18;;;;;;;0.80;0.80;;;-0.50;99.90;;;;;;5011184;28;20210;-75
2021/11/21 07:04:44;;;;;;;0.80;0.80;;;-0.50;99.90;;;;;;5010301;28;20195;-75
2021/11/21 07:07:11;;;;;;;0.95;0.95;;;-0.50;99.90;;;;;;5010976;28;20214;-75
2021/11/21 07:09:37;;;;;;;0.82;0.82;;;-0.60;99.90;;;;;;5010727;28;20209;-75
2021/11/21 07:12:04;;;;;;;0.70;0.70;;;-0.50;99.90;;;;;;5011303;28;20222;-76
2021/11/21 07:14:29;;;;;;;0.80;0.80;;;-0.50;99.90;;;;;;5012383;28;20396;-75
2021/11/21 07:16:55;;;;;;;0.85;0.85;;;-0.40;99.90;;;;;;5025268;28;20285;-75
2021/11/21 07:19:21;;;;;;;0.60;0.60;;;-0.30;99.90;;;;;;5011055;28;20264;-75
2021/11/21 07:21:47;;;;;;;0.60;0.60;;;-0.40;99.90;;;;;;5012256;28;20572;-76
2021/11/21 07:24:14;;;;;;;0.73;0.73;;;-0.30;99.90;;;;;;5010063;28;20203;-75
2021/11/21 07:26:40;;;;;;;0.70;0.70;;;-0.40;99.90;;;;;;5010877;28;20227;-75
2021/11/21 07:29:08;;;;;;;0.80;0.80;;;-0.50;99.90;;;;;;5012417;28;20257;-76
2021/11/21 07:31:34;;;;;;;0.75;0.75;;;-0.50;99.90;;;;;;5010911;28;20234;-76
2021/11/21 07:34:01;;;;;;;0.65;0.65;;;-0.50;99.90;;;;;;5011563;28;20273;-75
2021/11/21 07:36:27;;;;;;;0.70;0.70;;;-0.60;99.90;;;;;;5010595;28;20211;-75
2021/11/21 07:38:53;;;;;;;0.63;0.63;;;-0.60;99.90;;;;;;5008582;28;20551;-76
2021/11/21 07:41:19;;;;;;;0.70;0.70;;;-0.60;99.90;;;;;;5011113;28;20239;-76
2021/11/21 07:43:44;;;;;;;0.85;0.85;;;-0.60;99.90;;;;;;5009671;28;20211;-76
2021/11/21 07:46:10;;;;;;;0.80;0.80;;;-0.60;99.90;;;;;;5010933;28;20736;-76
2021/11/21 07:48:36;;;;;;;0.80;0.80;;;-0.60;99.90;;;;;;5010442;28;20559;-76
2021/11/21 07:51:03;;;;;;;0.70;0.70;;;-0.60;99.90;;;;;;5010746;28;20199;-76
2021/11/21 07:53:28;;;;;;;0.88;0.88;;;-0.60;99.90;;;;;;5011933;28;20199;-76
2021/11/21 07:55:55;;;;;;;0.70;0.70;;;-0.50;99.90;;;;;;5010617;28;20724;-76
2021/11/21 07:58:26;;;;;;;0.65;0.65;;;-0.60;99.90;;;;;;5010686;28;20207;-76
2021/11/21 08:00:52;;;;;;;0.73;0.73;;;-0.50;99.90;;;;;;5010507;28;20206;-76
2021/11/21 08:03:21;;;;;;;0.77;0.77;;;-0.60;99.90;;;;;;5009195;28;20207;-76
2021/11/21 08:05:47;;;;;;;0.60;0.60;;;-0.70;99.90;;;;;;5009516;28;20218;-76
2021/11/21 08:08:13;;;;;;;0.63;0.63;;;-0.70;99.90;;;;;;5010685;28;20678;-77
2021/11/21 08:10:39;;;;;;;4.97;1.23;;;-0.60;99.90;;;;;;5008950;28;20217;-77
2021/11/21 08:13:06;;;;;;;0.80;0.80;;;-0.60;99.90;;;;;;5009394;28;20211;-77
2021/11/21 08:15:32;;;;;;;0.63;0.63;;;-0.60;99.90;;;;;;5010562;28;20199;-76
2021/11/21 08:17:58;;;;;;;0.70;0.70;;;-0.60;99.90;;;;;;5008853;28;20557;-76
2021/11/21 08:20:24;;;;;;;0.68;0.68;;;-0.50;99.90;;;;;;5006933;28;20290;-75
2021/11/21 08:22:50;;;;;;;0.80;0.80;;;-0.40;99.90;;;;;;4991726;28;20200;-76
2021/11/21 08:25:15;;;;;;;0.68;0.68;;;-0.30;99.90;;;;;;5011485;28;20546;-76
2021/11/21 08:27:41;;;;;;;0.80;0.80;;;-0.30;99.90;;;;;;5009286;28;20671;-75
2021/11/21 08:30:09;;;;;;;0.70;0.70;;;-0.30;99.90;;;;;;5009419;28;20229;-75
2021/11/21 08:32:35;;;;;;;0.70;0.70;;;-0.20;99.90;;;;;;4991844;28;20210;-74
2021/11/21 08:35:01;;;;;;;0.68;0.68;;;-0.10;99.90;;;;;;5010431;28;20198;-76
2021/11/21 08:37:27;;;;;;;0.70;0.70;;;-0.20;99.90;;;;;;5009027;28;20294;-75
2021/11/21 08:39:54;;;;;;;0.75;0.75;;;-0.20;99.90;;;;;;5010508;28;20719;-75
2021/11/21 08:42:23;;;;;;;0.70;0.70;;;-0.20;99.90;;;;;;5010019;28;20392;-76
2021/11/21 08:44:48;;;;;;;0.70;0.70;;;-0.20;99.90;;;;;;5011284;28;20214;-75
2021/11/21 08:47:15;;;;;;;0.80;0.80;;;-0.30;99.90;;;;;;5009825;28;20206;-76
2021/11/21 08:49:41;;;;;;;0.70;0.70;;;-0.30;99.90;;;;;;5011188;28;20214;-76
2021/11/21 08:52:08;;;;;;;0.80;0.80;;;-0.20;99.90;;;;;;5011064;28;20286;-76
2021/11/21 08:54:34;;;;;;;0.70;0.70;;;-0.10;99.90;;;;;;5008718;28;20207;-75
2021/11/21 08:57:00;;;;;;;0.70;0.70;;;-0.10;99.90;;;;;;5011147;28;20205;-75
2021/11/21 08:59:28;;;;;;;0.80;0.80;;;-0.20;99.90;;;;;;5009560;28;20298;-75
2021/11/21 09:01:54;;;;;;;0.60;0.60;;;-0.10;99.90;;;;;;5008192;28;20210;-75
2021/11/21 09:04:20;;;;;;;0.70;0.70;;;0.10;99.90;;;;;;5008465;28;20210;-76
2021/11/21 09:06:47;;;;;;;0.70;0.70;;;0.10;99.90;;;;;;5011179;28;20207;-76
2021/11/21 09:09:19;;;;;;;0.77;0.77;;;0.20;99.90;;;;;;5008774;28;20210;-77
2021/11/21 09:11:44;;;;;;;0.70;0.70;;;0.10;99.90;;;;;;5009949;28;20234;-76
2021/11/21 09:14:12;;;;;;;0.70;0.70;;;0.10;99.90;;;;;;5010046;28;20251;-77
2021/11/21 09:16:38;;;;;;;0.70;0.70;;;0.10;99.90;;;;;;5010896;28;21314;-77
2021/11/21 09:19:03;;;;;;;0.60;0.60;;;0.10;99.90;;;;;;5010217;28;20253;-77
2021/11/21 09:21:29;;;;;;;0.73;0.73;;;0.10;99.90;;;;;;5008188;28;20206;-76
2021/11/21 09:23:55;;;;;;;0.60;0.60;;;0.40;99.90;;;;;;5009769;28;20249;-77
2021/11/21 09:26:21;;;;;;;0.60;0.60;;;0.40;99.90;;;;;;5010711;28;20217;-77
2021/11/21 09:28:47;;;;;;;0.70;0.70;;;0.60;99.90;;;;;;5010843;28;20213;-77
2021/11/21 09:31:12;;;;;;;0.70;0.70;;;0.60;99.90;;;;;;5011208;28;20301;-76
2021/11/21 09:33:41;;;;;;;0.57;0.57;;;0.70;99.90;;;;;;5014080;28;20588;-78
2021/11/21 09:36:12;;;;;;;0.70;0.70;;;0.80;99.90;;;;;;5012419;28;20833;-75
2021/11/21 09:38:38;;;;;;;0.60;0.60;;;1.00;99.90;;;;;;5013411;28;20194;-76
2021/11/21 09:41:04;;;;;;;0.70;0.70;;;1.00;99.90;;;;;;5011818;28;20207;-76
2021/11/21 09:43:31;;;;;;;0.70;0.70;;;1.00;99.90;;;;;;5012667;28;20219;-75
2021/11/21 09:45:56;;;;;;;0.70;0.70;;;1.10;99.90;;;;;;5014108;28;20209;-76
2021/11/21 09:48:29;;;;;;;0.70;0.70;;;1.20;99.90;;;;;;5012583;28;20210;-77
2021/11/21 09:50:55;;;;;;;0.70;0.70;;;1.30;99.90;;;;;;5011636;28;20198;-77
2021/11/21 09:53:22;;;;;;;0.60;0.60;;;1.40;99.90;;;;;;5012360;28;20210;-76
2021/11/21 09:55:51;;;;;;;0.80;0.80;;;1.50;99.90;;;;;;5012881;28;20692;-76
2021/11/21 09:58:20;;;;;;;1.08;1.08;;;1.60;99.90;;;;;;5012582;28;20670;-77
2021/11/21 10:00:46;;;;;;;0.57;0.57;;;1.70;99.90;;;;;;5012046;28;20203;-76
2021/11/21 10:03:16;;;;;;;0.60;0.60;;;1.70;99.90;;;;;;5012520;28;20211;-76
2021/11/21 10:05:53;;;;;;;0.60;0.60;;;1.70;99.90;;;;;;5013555;28;20203;-77
2021/11/21 10:08:30;;;;;;;0.60;0.60;;;1.80;99.90;;;;;;5009913;28;20551;-76
2021/11/21 10:11:10;;;;;;;0.70;0.70;;;1.80;99.90;;;;;;5013659;28;20285;-76
2021/11/21 10:13:47;;;;;;;0.60;0.60;;;1.90;99.90;;;;;;5009712;28;20302;-77
2021/11/21 10:16:28;;;;;;;0.70;0.70;;;1.90;99.90;;;;;;5012351;28;20293;-77
2021/11/21 10:18:58;;;;;;;0.55;0.55;;;1.90;99.90;;;;;;5013621;28;20225;-77
2021/11/21 10:21:34;;;;;;;0.70;0.70;;;1.90;99.90;;;;;;5010732;28;20211;-75
2021/11/21 10:24:29;;;;;;;0.60;0.60;;;2.00;99.90;;;;;;5013240;28;20231;-76
2021/11/21 10:27:07;;;;;;;0.80;0.80;;;2.00;99.90;;;;;;5011915;28;20728;-75
2021/11/21 10:29:36;;;;;;;0.70;0.70;;;2.10;99.90;;;;;;5013149;28;20297;-76
2021/11/21 10:32:18;;;;;;;0.70;0.70;;;2.10;99.90;;;;;;5011900;28;20605;-76
2021/11/21 10:34:52;;;;;;;0.70;0.70;;;2.00;99.90;;;;;;5013288;28;20210;-76
2021/11/21 10:37:20;;;;;;;0.60;0.60;;;2.00;99.90;;;;;;5011730;28;20609;-76
2021/11/21 10:39:46;;;;;;;0.65;0.65;;;2.10;99.90;;;;;;5013090;28;20209;-76
2021/11/21 10:42:13;;;;;;;0.65;0.65;;;2.10;99.90;;;;;;5011968;28;20210;-77
2021/11/21 10:44:49;;;;;;;0.68;0.68;;;2.20;99.90;;;;;;5012136;28;20211;-77
2021/11/21 10:47:14;;;;;;;0.68;0.68;;;2.30;99.90;;;;;;5011809;28;20731;-78
2021/11/21 10:49:41;;;;;;;0.60;0.60;;;2.30;99.90;;;;;;5011398;28;20214;-77
2021/11/21 10:52:15;;;;;;;0.68;0.68;;;2.40;99.90;;;;;;5012955;28;20253;-77
2021/11/21 10:54:54;;;;;;;0.52;0.52;;;2.50;99.90;;;;;;5011661;28;20293;-77
2021/11/21 10:57:33;;;;;;;0.70;0.70;;;2.40;99.90;;;;;;5011131;28;20217;-76
2021/11/21 11:00:04;;;;;;;0.70;0.70;;;2.40;99.90;;;;;;5010386;28;20741;-74
2021/11/21 11:02:38;;;;;;;0.80;0.80;;;2.30;99.90;;;;;;5011520;28;20540;-76
2021/11/21 11:05:14;;;;;;;0.60;0.60;;;2.30;99.90;;;;;;5011319;28;20273;-78
2021/11/21 11:08:02;;;;;;;0.60;0.60;;;2.40;99.90;;;;;;5011354;28;20681;-76
2021/11/21 11:10:30;;;;;;;0.63;0.63;;;2.50;99.90;;;;;;5009999;28;20305;-76
2021/11/21 11:13:07;;;;;;;0.70;0.70;;;2.40;99.90;;;;;;5009934;28;20227;-76
2021/11/21 11:15:36;;;;;;;0.52;0.52;;;2.40;99.90;;;;;;5010975;28;20209;-77
2021/11/21 11:18:03;;;;;;;0.57;0.57;;;2.50;99.90;;;;;;5011355;28;20674;-77
2021/11/21 11:20:29;;;;;;;0.70;0.70;;;2.50;99.90;;;;;;5010845;28;20261;-77
2021/11/21 11:22:58;;;;;;;0.63;0.63;;;2.50;99.90;;;;;;5027382;28;20261;-77
2021/11/21 11:25:26;;;;;;;0.60;0.60;;;2.50;99.90;;;;;;5010891;28;20563;-78
2021/11/21 11:27:56;;;;;;;0.50;0.50;;;2.50;99.90;;;;;;5011100;28;20206;-78
2021/11/21 11:30:33;;;;;;;0.60;0.60;;;2.50;99.90;;;;;;5009298;28;20290;-77
2021/11/21 11:33:09;;;;;;;0.60;0.60;;;2.40;99.90;;;;;;5011073;28;20252;-77
2021/11/21 11:35:47;;;;;;;0.60;0.60;;;2.50;99.90;;;;;;5010964;28;20199;-78
2021/11/21 11:38:12;;;;;;;0.70;0.70;;;2.60;99.90;;;;;;5011200;28;20613;-76
2021/11/21 11:40:41;;;;;;;0.70;0.70;;;2.60;99.90;;;;;;5011170;28;20206;-76
2021/11/21 11:43:16;;;;;;;0.70;0.70;;;2.60;99.90;;;;;;5009729;28;20680;-77
2021/11/21 11:45:44;;;;;;;0.70;0.70;;;2.60;99.90;;;;;;5011002;28;20264;-76
2021/11/21 11:48:39;;;;;;;0.55;0.55;;;2.60;99.90;;;;;;5010852;28;20685;-77
2021/11/21 11:51:15;;;;;;;0.63;0.63;;;2.70;99.90;;;;;;5006078;28;20215;-77
2021/11/21 11:53:43;;;;;;;0.60;0.60;;;2.60;99.90;;;;;;5010246;28;20199;-76
2021/11/21 11:56:24;;;;;;;0.60;0.60;;;2.60;99.90;;;;;;5011880;28;20787;-77
2021/11/21 11:58:57;;;;;;;0.52;0.52;;;2.60;99.90;;;;;;5010739;28;20209;-76
2021/11/21 12:01:32;;;;;;;0.60;0.60;;;2.60;99.90;;;;;;5009275;28;20266;-77
2021/11/21 12:04:02;;;;;;;0.60;0.60;;;2.50;99.90;;;;;;5009450;28;20292;-76
2021/11/21 12:06:48;;;;;;;0.60;0.60;;;2.50;99.90;;;;;;5010264;28;20668;-77
2021/11/21 12:09:19;;;;;;;0.60;0.60;;;2.50;99.90;;;;;;5010592;28;20221;-76
2021/11/21 12:12:01;;;;;;;0.63;0.63;;;2.50;99.90;;;;;;5009055;28;20646;-77
2021/11/21 12:14:37;;;;;;;2.92;1.17;;;2.50;99.90;;;;;;5011770;28;20253;-77
2021/11/21 12:17:09;;;;;;;0.60;0.60;;;2.50;99.90;;;;;;5010424;28;20281;-77
2021/11/21 12:19:41;;;;;;;0.80;0.80;;;2.60;99.90;;;;;;5010297;28;20238;-76
2021/11/21 12:22:29;;;;;;;0.70;0.70;;;2.60;99.90;;;;;;5008810;28;20641;-76
2021/11/21 12:24:57;;;;;;;0.57;0.57;;;2.60;99.90;;;;;;5010197;28;20203;-77
2021/11/21 12:27:26;;;;;;;0.60;0.60;;;2.60;99.90;;;;;;5010143;28;20203;-76
2021/11/21 12:30:21;;;;;;;0.60;0.60;;;2.60;99.90;;;;;;5010228;28;20218;-77
2021/11/21 12:32:50;;;;;;;0.60;0.60;;;2.60;99.90;;;;;;5010991;28;20207;-78
2021/11/21 12:35:36;;;;;;;0.80;0.80;;;2.50;99.90;;;;;;5010249;28;20690;-78
2021/11/21 12:38:35;;;;;;;0.70;0.70;;;2.40;99.90;;;;;;5010234;28;20198;-77
2021/11/21 12:41:06;;;;;;;0.63;0.63;;;2.40;99.90;;;;;;4996298;28;20621;-77
2021/11/21 12:43:32;;;;;;;0.70;0.70;;;2.30;99.90;;;;;;5011463;28;20195;-77
2021/11/21 12:46:00;;;;;;;0.60;0.60;;;2.30;99.90;;;;;;5010360;28;20214;-76
2021/11/21 12:48:29;;;;;;;0.77;0.77;;;2.30;99.90;;;;;;5010310;28;20270;-76
2021/11/21 12:50:57;;;;;;;0.57;0.57;;;2.30;99.90;;;;;;5009442;28;20306;-77
2021/11/21 12:53:27;;;;;;;0.60;0.60;;;2.30;99.90;;;;;;5010319;28;20198;-76
2021/11/21 12:55:55;;;;;;;0.60;0.60;;;2.30;99.90;;;;;;5010388;28;20251;-77
2021/11/21 12:58:31;;;;;;;0.70;0.70;;;2.20;99.90;;;;;;5009883;28;20221;-77
2021/11/21 13:01:03;;;;;;;0.75;0.75;;;2.20;99.90;;;;;;5009729;28;20572;-76